Terminal Aerodrome Forecast
Issued by NWS Memphis, TN

Home | Current Version | Previous Version | Text Only | Print | Product List | Glossary On
Versions: 1 2 3 4 5 6 7 8 9 10 11 12 13
443
FTUS44 KMEG 041720
TAFJBR
TAF
KJBR 041720Z 0418/0518 36005KT 3SM BR OVC005
     FM042000 32005KT 5SM BR OVC015
     FM050100 36004KT 5SM BR SCT015 BKN020
     FM050700 02003KT 4SM BR SCT015 BKN020
     FM051100 06005KT 4SM BR BKN010 OVC020
     FM051500 06005KT 6SM BR SCT010 BKN100=

USA.gov is the U.S. government's official web portal to all federal, state and local government web resources and services.